Time;durP1;ratioP1;P1;durP2;ratioP2;P2;SDS_P1;SDS_P2;PMS_P1;PMS_P2;Temp;Humidity;BMP_temperature;BMP_pressure;BME280_temperature;BME280_humidity;BME280_pressure;Samples;Min_cycle;Max_cycle;Signal;HPM_P1;HPM_P2
2023/05/10 00:00:14;;;;;;;1.50;1.00;;;15.20;99.90;;;;;;4951201;28;20212;-66
2023/05/10 00:02:40;;;;;;;1.50;1.30;;;15.20;99.90;;;;;;4966494;28;20211;-67
2023/05/10 00:05:06;;;;;;;4.77;1.57;;;15.40;99.90;;;;;;4957313;28;20195;-67
2023/05/10 00:07:32;;;;;;;1.90;1.10;;;15.40;99.90;;;;;;4942977;28;20555;-67
2023/05/10 00:09:57;;;;;;;1.37;1.10;;;15.60;99.90;;;;;;4952891;28;20207;-66
2023/05/10 00:12:23;;;;;;;1.40;1.30;;;15.60;99.90;;;;;;4958207;28;20240;-66
2023/05/10 00:14:49;;;;;;;3.93;1.87;;;15.50;99.90;;;;;;4955645;28;20207;-66
2023/05/10 00:17:14;;;;;;;0.90;0.73;;;15.10;99.90;;;;;;4947764;28;20231;-66
2023/05/10 00:19:40;;;;;;;2.00;0.87;;;15.50;99.90;;;;;;4941647;28;20189;-66
2023/05/10 00:22:06;;;;;;;2.47;0.70;;;15.40;99.90;;;;;;4957821;28;20236;-66
2023/05/10 00:24:31;;;;;;;1.13;0.97;;;15.60;99.90;;;;;;4959665;28;20689;-66
2023/05/10 00:26:57;;;;;;;0.77;0.77;;;15.50;99.90;;;;;;4956469;28;20243;-66
2023/05/10 00:29:22;;;;;;;0.97;0.77;;;15.30;99.90;;;;;;4960261;28;20630;-66
2023/05/10 00:31:48;;;;;;;1.00;0.60;;;15.00;99.90;;;;;;4956056;28;20192;-66
2023/05/10 00:34:13;;;;;;;2.70;0.80;;;15.10;99.90;;;;;;4945126;28;20184;-66
2023/05/10 00:36:39;;;;;;;0.80;0.77;;;15.00;99.90;;;;;;4959242;28;20181;-66
2023/05/10 00:39:05;;;;;;;2.00;0.70;;;15.20;99.90;;;;;;4971353;23;20228;-74
2023/05/10 00:41:33;;;;;;;0.77;0.60;;;15.20;99.90;;;;;;4948204;28;20205;-71
2023/05/10 00:44:00;;;;;;;3.17;1.25;;;14.80;99.90;;;;;;4940630;28;20279;-71
2023/05/10 00:46:26;;;;;;;1.35;0.70;;;15.00;99.90;;;;;;4946091;28;20181;-71
2023/05/10 00:48:52;;;;;;;0.63;0.50;;;15.10;99.90;;;;;;4924072;29;20193;-75
2023/05/10 00:51:18;;;;;;;0.73;0.60;;;14.90;99.90;;;;;;4944440;28;20598;-75
2023/05/10 00:53:47;;;;;;;1.23;0.70;;;15.10;99.90;;;;;;4925782;29;20668;-73
2023/05/10 00:56:13;;;;;;;1.38;0.80;;;14.80;99.90;;;;;;4921300;29;20200;-72
2023/05/10 00:58:39;;;;;;;1.33;0.60;;;15.10;99.90;;;;;;4945824;28;20323;-73
2023/05/10 01:01:06;;;;;;;0.85;0.85;;;15.20;99.90;;;;;;4926460;29;20266;-72
2023/05/10 01:03:32;;;;;;;0.98;0.70;;;15.00;99.90;;;;;;4947606;28;20221;-73
2023/05/10 01:05:58;;;;;;;0.70;0.60;;;15.00;99.90;;;;;;4943545;28;20196;-73
2023/05/10 01:08:24;;;;;;;1.43;0.50;;;15.10;99.90;;;;;;4946903;28;20204;-74
2023/05/10 01:10:50;;;;;;;0.60;0.50;;;14.90;99.90;;;;;;4948960;28;20216;-73
2023/05/10 01:13:37;;;;;;;0.65;0.50;;;14.90;99.90;;;;;;4947314;28;20335;-74
2023/05/10 01:16:03;;;;;;;1.83;0.50;;;15.00;99.90;;;;;;4943985;28;20299;-73
2023/05/10 01:18:38;;;;;;;0.70;0.60;;;15.10;99.90;;;;;;4947847;28;20196;-74
2023/05/10 01:21:23;;;;;;;0.70;0.60;;;14.90;99.90;;;;;;4927039;29;21307;-75
2023/05/10 01:24:10;;;;;;;0.60;0.50;;;14.70;99.90;;;;;;4927015;29;20181;-73
2023/05/10 01:27:12;;;;;;;0.70;0.68;;;14.70;99.90;;;;;;4945974;28;20197;-72
2023/05/10 01:30:08;;;;;;;1.35;0.70;;;14.70;99.90;;;;;;4945708;28;20232;-73
2023/05/10 01:32:46;;;;;;;1.23;0.50;;;14.50;99.90;;;;;;4947302;28;20588;-73
2023/05/10 01:35:42;;;;;;;0.60;0.43;;;14.50;99.90;;;;;;4944819;28;20193;-72
2023/05/10 01:38:29;;;;;;;0.60;0.50;;;14.70;99.90;;;;;;4926861;29;20199;-73
2023/05/10 01:41:28;;;;;;;0.60;0.50;;;14.50;99.90;;;;;;4943410;28;20209;-75
2023/05/10 01:43:57;;;;;;;1.25;0.60;;;14.50;99.90;;;;;;4942129;28;20563;-74
2023/05/10 01:46:32;;;;;;;1.02;0.70;;;14.60;99.90;;;;;;4924625;29;20192;-73
2023/05/10 01:49:02;;;;;;;1.83;0.60;;;14.80;99.90;;;;;;4947825;28;20192;-73
2023/05/10 01:51:35;;;;;;;0.60;0.50;;;14.60;99.90;;;;;;4944414;28;20209;-73
2023/05/10 01:54:03;;;;;;;1.30;0.60;;;14.50;99.90;;;;;;4945276;28;20191;-74
2023/05/10 01:56:32;;;;;;;0.90;0.60;;;14.80;99.90;;;;;;4941956;28;20581;-75
2023/05/10 01:58:59;;;;;;;0.60;0.50;;;14.50;99.90;;;;;;4943091;28;20198;-72
2023/05/10 02:01:26;;;;;;;0.70;0.50;;;14.80;99.90;;;;;;4946885;28;20216;-74
2023/05/10 02:03:53;;;;;;;0.82;0.63;;;14.60;99.90;;;;;;4947105;28;20193;-71
2023/05/10 02:06:21;;;;;;;0.60;0.60;;;14.70;99.90;;;;;;4945669;29;20721;-72
2023/05/10 02:08:49;;;;;;;1.00;0.55;;;14.60;99.90;;;;;;4930595;28;20306;-72
2023/05/10 02:11:14;;;;;;;2.35;0.60;;;14.50;99.90;;;;;;4948145;28;20264;-74
2023/05/10 02:13:41;;;;;;;1.03;0.50;;;14.70;99.90;;;;;;4951470;28;20654;-74
2023/05/10 02:16:08;;;;;;;3.63;0.73;;;14.60;99.90;;;;;;4930595;28;20521;-74
2023/05/10 02:18:35;;;;;;;0.60;0.57;;;14.40;99.90;;;;;;4949698;28;20248;-73
2023/05/10 02:21:02;;;;;;;0.93;0.70;;;14.60;99.90;;;;;;4949737;28;20211;-73
2023/05/10 02:23:29;;;;;;;0.60;0.43;;;14.60;99.90;;;;;;4949559;28;20213;-72
2023/05/10 02:25:56;;;;;;;0.82;0.55;;;14.70;99.90;;;;;;4934051;29;20236;-76
2023/05/10 02:28:24;;;;;;;0.60;0.50;;;14.40;99.90;;;;;;4933917;29;20200;-70
2023/05/10 02:30:51;;;;;;;1.80;0.50;;;14.60;99.90;;;;;;4928759;29;20661;-72
2023/05/10 02:33:19;;;;;;;0.80;0.60;;;14.30;99.90;;;;;;4949778;28;20184;-74
2023/05/10 02:35:46;;;;;;;0.70;0.70;;;14.10;99.90;;;;;;4933806;29;20196;-74
2023/05/10 02:38:14;;;;;;;0.60;0.50;;;14.10;99.90;;;;;;4945926;28;20207;-73
2023/05/10 02:40:42;;;;;;;0.50;0.50;;;14.80;99.90;;;;;;4946427;29;20256;-76
2023/05/10 02:43:13;;;;;;;0.60;0.50;;;14.30;99.90;;;;;;4951188;28;20212;-74
2023/05/10 02:45:39;;;;;;;0.80;0.50;;;14.40;99.90;;;;;;4948227;28;20181;-73
2023/05/10 02:48:05;;;;;;;1.45;0.68;;;14.60;99.90;;;;;;4933913;29;20275;-73
2023/05/10 02:50:33;;;;;;;0.83;0.50;;;14.50;99.90;;;;;;4933465;29;20326;-72
2023/05/10 02:53:11;;;;;;;0.65;0.55;;;14.40;99.90;;;;;;4931635;29;20441;-74
2023/05/10 02:55:40;;;;;;;0.80;0.80;;;14.40;99.90;;;;;;4942702;28;20251;-74
2023/05/10 02:58:05;;;;;;;0.70;0.60;;;14.20;99.90;;;;;;4930333;29;20323;-73
2023/05/10 03:00:31;;;;;;;1.13;0.70;;;14.10;99.90;;;;;;4930216;28;20304;-75
2023/05/10 03:02:57;;;;;;;1.10;0.60;;;14.20;99.90;;;;;;4947191;28;20228;-73
2023/05/10 03:05:23;;;;;;;2.70;0.80;;;14.30;99.90;;;;;;4947223;28;20662;-73
2023/05/10 03:07:48;;;;;;;0.70;0.57;;;13.90;99.90;;;;;;4926483;29;20617;-73
2023/05/10 03:10:14;;;;;;;0.90;0.60;;;14.10;99.90;;;;;;4950208;28;20292;-75
2023/05/10 03:13:01;;;;;;;0.80;0.70;;;14.30;99.90;;;;;;4945474;28;20208;-72
2023/05/10 03:15:45;;;;;;;1.83;0.80;;;14.20;99.90;;;;;;4932547;29;20200;-72
2023/05/10 03:18:21;;;;;;;0.80;0.70;;;14.10;99.90;;;;;;4933076;28;20189;-72
2023/05/10 03:20:49;;;;;;;1.77;0.70;;;14.10;99.90;;;;;;4928380;29;20685;-75
2023/05/10 03:23:18;;;;;;;1.55;0.60;;;14.00;99.90;;;;;;4927866;28;20236;-75
2023/05/10 03:25:46;;;;;;;1.00;0.90;;;14.10;99.90;;;;;;4947078;28;20534;-75
2023/05/10 03:28:14;;;;;;;1.05;0.80;;;14.20;99.90;;;;;;4943799;28;20197;-72
2023/05/10 03:30:41;;;;;;;1.70;0.70;;;14.20;99.90;;;;;;4948011;28;20211;-73
2023/05/10 03:33:07;;;;;;;2.05;0.88;;;14.40;99.90;;;;;;4945272;28;20200;-71
2023/05/10 03:35:32;;;;;;;2.50;1.07;;;14.30;99.90;;;;;;4945092;28;20665;-72
2023/05/10 03:37:58;;;;;;;3.23;1.03;;;14.10;99.90;;;;;;4948680;28;20205;-73
2023/05/10 03:40:25;;;;;;;1.00;0.80;;;13.60;99.90;;;;;;4948656;28;20630;-76
2023/05/10 03:42:50;;;;;;;1.15;0.90;;;13.80;99.90;;;;;;4947730;28;20360;-73
2023/05/10 03:45:16;;;;;;;1.73;0.80;;;14.00;99.90;;;;;;4949218;28;20259;-75
2023/05/10 03:47:42;;;;;;;1.00;0.87;;;14.10;99.90;;;;;;4948168;28;20186;-72
2023/05/10 03:50:08;;;;;;;0.70;0.70;;;14.10;99.90;;;;;;4944605;29;20965;-72
2023/05/10 03:52:33;;;;;;;1.38;0.80;;;14.40;99.90;;;;;;4942929;29;20196;-72
2023/05/10 03:54:59;;;;;;;1.67;1.00;;;14.00;99.90;;;;;;4943220;28;20196;-75
2023/05/10 03:57:24;;;;;;;1.53;1.43;;;14.00;99.90;;;;;;4946210;29;20277;-72
2023/05/10 03:59:50;;;;;;;1.83;1.47;;;14.20;99.90;;;;;;4929048;29;20209;-72
2023/05/10 04:02:16;;;;;;;0.93;0.90;;;14.00;99.90;;;;;;4929832;29;20205;-75
2023/05/10 04:04:41;;;;;;;1.00;1.00;;;14.20;99.90;;;;;;4950718;28;20216;-71
2023/05/10 04:07:07;;;;;;;1.30;1.20;;;14.10;99.90;;;;;;4942187;29;20265;-71
2023/05/10 04:09:33;;;;;;;1.67;1.10;;;14.30;99.90;;;;;;4932187;29;20227;-71
2023/05/10 04:11:59;;;;;;;1.90;1.10;;;13.90;99.90;;;;;;4931011;29;20662;-74
2023/05/10 04:14:25;;;;;;;0.90;0.90;;;14.20;99.90;;;;;;4942197;28;20244;-72
2023/05/10 04:16:50;;;;;;;1.03;0.93;;;14.20;99.90;;;;;;4928957;29;20193;-72
2023/05/10 04:19:16;;;;;;;1.33;1.20;;;14.30;99.90;;;;;;4923427;29;20280;-69
2023/05/10 04:21:42;;;;;;;1.83;1.13;;;14.60;99.90;;;;;;4943222;28;20206;-69
2023/05/10 04:24:07;;;;;;;1.57;1.47;;;14.00;99.90;;;;;;4944769;29;22206;-69
2023/05/10 04:26:33;;;;;;;3.50;2.00;;;14.10;99.90;;;;;;4948371;28;20673;-69
2023/05/10 04:28:59;;;;;;;1.50;1.40;;;14.00;99.90;;;;;;4943553;28;20177;-69
2023/05/10 04:31:24;;;;;;;1.63;1.20;;;13.90;99.90;;;;;;4941065;28;20594;-69
2023/05/10 04:33:50;;;;;;;1.57;1.27;;;14.10;99.90;;;;;;4936008;28;20178;-69
2023/05/10 04:36:15;;;;;;;2.50;1.30;;;13.80;99.90;;;;;;4945410;28;20192;-70
2023/05/10 04:38:42;;;;;;;1.40;1.27;;;13.80;99.90;;;;;;4944659;29;20200;-72
2023/05/10 04:41:09;;;;;;;1.70;1.10;;;14.10;99.90;;;;;;4944447;29;20939;-71
2023/05/10 04:43:35;;;;;;;1.30;1.10;;;13.90;99.90;;;;;;4927509;29;20917;-73
2023/05/10 04:46:01;;;;;;;2.75;1.20;;;14.00;99.90;;;;;;4941383;28;20264;-72
2023/05/10 04:48:27;;;;;;;1.40;1.30;;;14.00;99.90;;;;;;4944991;29;20276;-72
2023/05/10 04:50:53;;;;;;;2.10;1.37;;;14.10;99.90;;;;;;4930031;29;20523;-73
2023/05/10 04:53:18;;;;;;;1.43;1.10;;;14.20;99.90;;;;;;4928696;29;20195;-71
2023/05/10 04:55:44;;;;;;;1.40;1.30;;;14.30;99.90;;;;;;4944335;29;20185;-72
2023/05/10 04:58:09;;;;;;;1.23;1.13;;;14.20;99.90;;;;;;4941171;29;20186;-72
2023/05/10 05:00:35;;;;;;;1.63;1.27;;;14.30;99.90;;;;;;4926551;29;20217;-72
2023/05/10 05:03:00;;;;;;;2.60;1.60;;;14.30;99.90;;;;;;4946794;28;20221;-71
2023/05/10 05:05:26;;;;;;;1.10;1.00;;;14.50;99.90;;;;;;4938870;28;20197;-70
2023/05/10 05:07:52;;;;;;;1.63;1.50;;;14.70;99.90;;;;;;4945623;29;20666;-70
2023/05/10 05:10:18;;;;;;;1.17;1.07;;;14.50;99.90;;;;;;4945919;28;26154;-69
2023/05/10 05:12:43;;;;;;;1.40;1.30;;;14.70;99.90;;;;;;4944491;28;20239;-76
2023/05/10 05:15:09;;;;;;;1.20;1.10;;;14.60;99.90;;;;;;4929526;29;20212;-72
2023/05/10 05:17:35;;;;;;;1.88;1.10;;;14.80;99.90;;;;;;4943521;28;20189;-72
2023/05/10 05:20:01;;;;;;;4.20;2.30;;;15.00;99.90;;;;;;4927100;29;20685;-71
2023/05/10 05:22:27;;;;;;;5.10;1.77;;;15.00;99.90;;;;;;4941801;28;20472;-71
2023/05/10 05:24:58;;;;;;;1.25;1.00;;;15.20;99.90;;;;;;4927778;29;20444;-70
2023/05/10 05:27:25;;;;;;;1.20;1.10;;;15.00;99.90;;;;;;4943843;29;20685;-70
2023/05/10 05:29:55;;;;;;;1.63;1.52;;;15.10;99.90;;;;;;4943465;29;20200;-70
2023/05/10 05:32:21;;;;;;;2.10;1.30;;;15.00;99.90;;;;;;4944930;29;20590;-70
2023/05/10 05:34:47;;;;;;;1.38;1.27;;;15.20;99.90;;;;;;4926248;29;20196;-72
2023/05/10 05:37:14;;;;;;;1.40;1.00;;;15.30;99.90;;;;;;4942995;28;20189;-70
2023/05/10 05:39:40;;;;;;;1.00;0.80;;;15.50;99.90;;;;;;4941609;28;20560;-70
2023/05/10 05:42:05;;;;;;;1.93;1.13;;;15.20;99.90;;;;;;4943317;29;20224;-71
2023/05/10 05:44:31;;;;;;;1.30;1.20;;;15.10;99.90;;;;;;4945188;28;20209;-71
2023/05/10 05:46:56;;;;;;;1.80;1.03;;;15.60;99.90;;;;;;4947351;28;20685;-71
2023/05/10 05:49:22;;;;;;;8.13;1.40;;;15.30;99.90;;;;;;4945738;28;21026;-71
2023/05/10 05:51:50;;;;;;;2.07;1.37;;;15.40;99.90;;;;;;4949145;28;20197;-73
2023/05/10 05:54:15;;;;;;;1.80;1.20;;;15.30;99.90;;;;;;4925271;29;20191;-70
2023/05/10 05:56:41;;;;;;;1.20;1.00;;;15.30;99.90;;;;;;4931980;29;20256;-73
2023/05/10 05:59:07;;;;;;;2.50;1.27;;;15.60;99.90;;;;;;4942483;28;20193;-72
2023/05/10 06:01:33;;;;;;;1.35;1.25;;;15.50;99.90;;;;;;4948387;28;20294;-69
2023/05/10 06:03:59;;;;;;;1.93;1.50;;;15.30;99.90;;;;;;4947046;29;20185;-70
2023/05/10 06:06:24;;;;;;;2.00;1.50;;;15.40;99.90;;;;;;4946558;28;20196;-69
2023/05/10 06:08:50;;;;;;;1.50;1.30;;;15.60;99.90;;;;;;4945067;28;20236;-70
2023/05/10 06:11:15;;;;;;;1.50;1.40;;;15.30;99.90;;;;;;4945841;28;20208;-70
2023/05/10 06:13:42;;;;;;;1.80;1.50;;;15.30;99.90;;;;;;4927007;29;20235;-69
2023/05/10 06:16:07;;;;;;;3.50;1.40;;;15.50;99.90;;;;;;4933393;28;20268;-69
2023/05/10 06:18:33;;;;;;;3.17;1.60;;;15.60;99.90;;;;;;4945237;28;20212;-71
2023/05/10 06:20:59;;;;;;;2.17;1.90;;;15.60;99.90;;;;;;4951289;29;20215;-71
2023/05/10 06:23:25;;;;;;;5.10;3.70;;;15.50;99.90;;;;;;4934331;29;20208;-70
2023/05/10 06:25:51;;;;;;;2.33;1.40;;;15.50;99.90;;;;;;4947422;28;20461;-70
2023/05/10 06:28:17;;;;;;;3.38;1.67;;;15.40;99.90;;;;;;4932816;29;20236;-70
2023/05/10 06:30:43;;;;;;;1.70;1.20;;;15.60;99.90;;;;;;4926961;29;20201;-68
2023/05/10 06:33:08;;;;;;;1.48;1.38;;;15.90;99.90;;;;;;4942373;29;21464;-68
2023/05/10 06:35:34;;;;;;;1.60;1.17;;;15.80;99.90;;;;;;4949481;28;20275;-66
2023/05/10 06:37:59;;;;;;;2.63;1.63;;;15.70;99.90;;;;;;4975765;23;20241;-86
2023/05/10 06:40:25;;;;;;;2.50;1.70;;;16.00;99.90;;;;;;4959386;28;20607;-85
2023/05/10 06:42:51;;;;;;;1.70;1.57;;;16.10;99.90;;;;;;4947884;29;20212;-85
2023/05/10 06:45:17;;;;;;;2.80;2.07;;;15.60;99.90;;;;;;4938080;29;20506;-86
2023/05/10 06:47:42;;;;;;;1.77;1.67;;;15.90;99.90;;;;;;4946090;29;20564;-82
2023/05/10 06:50:09;;;;;;;3.10;1.70;;;16.00;99.90;;;;;;4950238;29;20173;-82
2023/05/10 06:52:34;;;;;;;2.15;1.48;;;15.60;99.90;;;;;;4947429;29;20575;-80
2023/05/10 06:55:00;;;;;;;2.70;2.50;;;15.30;99.90;;;;;;4947732;29;20194;-85
2023/05/10 06:57:26;;;;;;;1.87;1.77;;;15.60;99.90;;;;;;4942931;29;20220;-86
2023/05/10 06:59:52;;;;;;;2.70;2.07;;;15.90;99.90;;;;;;4942957;28;20197;-85
2023/05/10 07:02:18;;;;;;;1.88;1.77;;;15.60;99.90;;;;;;4959932;28;20717;-84
2023/05/10 07:04:43;;;;;;;1.77;1.33;;;15.00;99.90;;;;;;4959680;28;20200;-85
2023/05/10 07:07:09;;;;;;;2.83;1.50;;;15.30;99.90;;;;;;4951141;29;20208;-85
2023/05/10 07:09:35;;;;;;;1.77;1.67;;;15.40;99.90;;;;;;4947989;29;20213;-86
2023/05/10 07:12:01;;;;;;;1.30;1.20;;;16.10;99.90;;;;;;4946422;29;20220;-86
2023/05/10 07:14:27;;;;;;;1.67;1.58;;;15.80;99.90;;;;;;4946668;29;20198;-86
2023/05/10 07:16:53;;;;;;;1.70;1.60;;;15.80;99.90;;;;;;4944653;29;20213;-86
2023/05/10 07:19:18;;;;;;;2.03;1.50;;;16.70;99.90;;;;;;4954301;28;20248;-85
2023/05/10 07:21:43;;;;;;;2.60;1.80;;;16.10;99.90;;;;;;4946489;29;20263;-85
2023/05/10 07:24:09;;;;;;;2.10;1.90;;;16.60;99.90;;;;;;4947123;29;20425;-85
2023/05/10 07:26:34;;;;;;;1.73;1.30;;;17.00;99.90;;;;;;4947529;29;20193;-85
2023/05/10 07:29:00;;;;;;;1.97;1.70;;;17.50;99.90;;;;;;4945275;29;20188;-85
2023/05/10 07:31:26;;;;;;;1.60;1.50;;;17.40;99.90;;;;;;4942645;29;20209;-85
2023/05/10 07:33:52;;;;;;;2.00;1.57;;;17.40;99.90;;;;;;4947820;28;20187;-85
2023/05/10 07:36:17;;;;;;;1.60;1.50;;;17.80;99.90;;;;;;4939329;29;20201;-86
2023/05/10 07:38:43;;;;;;;1.40;1.30;;;18.10;99.90;;;;;;4939049;29;20259;-86
2023/05/10 07:41:10;;;;;;;3.17;1.57;;;18.00;99.90;;;;;;4938751;29;20192;-86
2023/05/10 07:43:36;;;;;;;1.60;1.50;;;17.80;99.90;;;;;;4939223;29;20216;-86
2023/05/10 07:46:01;;;;;;;1.30;1.20;;;18.00;99.90;;;;;;4942340;29;20188;-86
2023/05/10 07:48:27;;;;;;;1.77;1.40;;;17.70;99.90;;;;;;4941128;29;20189;-87
2023/05/10 07:50:56;;;;;;;1.83;1.50;;;18.30;99.90;;;;;;4953597;28;20201;-85
2023/05/10 07:53:21;;;;;;;2.15;1.40;;;18.20;99.90;;;;;;4938532;29;20245;-85
2023/05/10 07:55:51;;;;;;;2.43;1.37;;;18.20;99.90;;;;;;4941181;29;20189;-85
2023/05/10 07:58:17;;;;;;;1.65;1.55;;;17.90;99.90;;;;;;4940183;28;20317;-86
2023/05/10 08:00:42;;;;;;;1.20;1.10;;;18.10;99.90;;;;;;4934831;28;20583;-86
2023/05/10 08:03:08;;;;;;;1.63;1.20;;;18.00;99.90;;;;;;4936645;29;20205;-86
2023/05/10 08:05:33;;;;;;;2.20;1.40;;;17.90;99.90;;;;;;4939891;28;20720;-86
2023/05/10 08:07:59;;;;;;;1.80;1.37;;;17.60;99.90;;;;;;4940801;29;20185;-86
2023/05/10 08:10:25;;;;;;;1.67;1.00;;;17.80;99.90;;;;;;4941286;29;20205;-85
2023/05/10 08:12:50;;;;;;;1.67;1.02;;;17.70;99.90;;;;;;4943631;29;20204;-85
2023/05/10 08:15:16;;;;;;;2.57;1.20;;;17.70;99.90;;;;;;4941862;29;20280;-85
2023/05/10 08:17:42;;;;;;;2.00;1.20;;;17.70;99.90;;;;;;4939337;29;20192;-84
2023/05/10 08:20:08;;;;;;;2.00;1.05;;;17.70;99.90;;;;;;4946297;29;20193;-85
2023/05/10 08:22:34;;;;;;;1.67;1.10;;;17.70;99.90;;;;;;4938821;29;20232;-85
2023/05/10 08:24:59;;;;;;;1.57;0.90;;;17.50;99.90;;;;;;4936212;29;20185;-85
2023/05/10 08:27:25;;;;;;;11.60;9.77;;;17.50;99.90;;;;;;4940847;29;20220;-84
2023/05/10 08:29:50;;;;;;;2.60;2.40;;;17.70;99.90;;;;;;4942242;29;20185;-84
2023/05/10 08:32:16;;;;;;;1.33;1.10;;;18.20;99.90;;;;;;4945056;29;20209;-83
2023/05/10 08:34:42;;;;;;;2.33;1.20;;;17.80;99.90;;;;;;4943434;29;20240;-86
2023/05/10 08:37:08;;;;;;;1.53;1.27;;;18.10;99.90;;;;;;4940226;29;20375;-85
2023/05/10 08:39:36;;;;;;;2.80;1.27;;;18.00;99.90;;;;;;4941663;29;20208;-84
2023/05/10 08:42:04;;;;;;;1.50;0.90;;;18.20;99.90;;;;;;4936884;29;20216;-87
2023/05/10 08:44:32;;;;;;;1.25;1.15;;;18.10;99.90;;;;;;4946191;29;20551;-86
2023/05/10 08:47:01;;;;;;;1.90;1.00;;;17.70;99.90;;;;;;4940490;29;20617;-86
2023/05/10 08:49:30;;;;;;;1.60;1.30;;;18.20;99.90;;;;;;4939957;29;20181;-86
2023/05/10 08:51:59;;;;;;;1.52;0.90;;;17.80;99.90;;;;;;4945300;29;20205;-85
2023/05/10 08:54:25;;;;;;;1.88;1.60;;;18.20;99.90;;;;;;4940613;29;20684;-85
2023/05/10 08:56:51;;;;;;;1.37;1.00;;;17.60;99.90;;;;;;4937616;29;20186;-86
2023/05/10 08:59:17;;;;;;;1.30;1.10;;;18.10;99.90;;;;;;4941739;29;20271;-84
2023/05/10 09:01:45;;;;;;;0.90;0.80;;;17.80;99.90;;;;;;4933664;29;20255;-83
2023/05/10 09:04:11;;;;;;;2.47;1.58;;;18.50;99.90;;;;;;4935236;29;20267;-84
2023/05/10 09:06:37;;;;;;;0.95;0.80;;;18.50;99.90;;;;;;4939752;28;20205;-86
2023/05/10 09:09:03;;;;;;;2.50;1.10;;;18.70;99.90;;;;;;4934324;29;20185;-85
2023/05/10 09:11:29;;;;;;;1.20;0.90;;;18.90;99.90;;;;;;4949112;29;20276;-84
2023/05/10 09:13:56;;;;;;;2.75;1.10;;;18.80;99.90;;;;;;4948922;28;20539;-84
2023/05/10 09:16:22;;;;;;;1.35;0.75;;;19.10;99.90;;;;;;4935125;29;20189;-84
2023/05/10 09:18:49;;;;;;;1.27;0.80;;;19.00;99.90;;;;;;4936801;29;20772;-85
2023/05/10 09:21:14;;;;;;;1.92;1.25;;;18.70;99.90;;;;;;4935507;28;20296;-85
2023/05/10 09:23:43;;;;;;;1.70;1.60;;;18.80;99.90;;;;;;4934297;28;20232;-84
2023/05/10 09:26:08;;;;;;;1.63;1.25;;;18.40;99.90;;;;;;4929237;29;20303;-84
2023/05/10 09:28:49;;;;;;;0.97;0.70;;;18.00;99.90;;;;;;4934706;29;20221;-83
2023/05/10 09:31:15;;;;;;;1.25;0.73;;;17.60;99.90;;;;;;4930901;28;20319;-86
2023/05/10 09:33:45;;;;;;;1.07;0.97;;;18.00;99.90;;;;;;4939678;29;20212;-85
2023/05/10 09:36:11;;;;;;;0.90;0.70;;;17.40;99.90;;;;;;4948416;28;20193;-86
2023/05/10 09:38:54;;;;;;;2.80;1.50;;;17.30;99.90;;;;;;4938747;29;20203;-86
2023/05/10 09:41:21;;;;;;;1.33;0.82;;;16.90;99.90;;;;;;4951748;29;21020;-82
2023/05/10 09:43:48;;;;;;;1.20;1.10;;;17.90;99.90;;;;;;4937671;28;20258;-82
2023/05/10 09:46:15;;;;;;;1.70;1.35;;;17.80;99.90;;;;;;4938707;29;20235;-82
2023/05/10 09:48:43;;;;;;;2.55;0.80;;;17.80;99.90;;;;;;4937352;29;20200;-82
2023/05/10 09:51:09;;;;;;;1.00;0.85;;;18.20;99.90;;;;;;4935960;28;20264;-82
2023/05/10 09:53:35;;;;;;;1.73;1.63;;;18.50;99.90;;;;;;4931610;29;20231;-83
2023/05/10 09:56:00;;;;;;;1.00;0.80;;;19.00;99.90;;;;;;4935730;29;20280;-82
2023/05/10 09:58:26;;;;;;;0.80;0.77;;;19.00;99.90;;;;;;4940847;29;20261;-82
2023/05/10 10:00:53;;;;;;;0.80;0.80;;;19.30;99.60;;;;;;4939684;29;20207;-83
2023/05/10 10:03:20;;;;;;;2.00;0.93;;;20.00;97.90;;;;;;4941297;29;20201;-83
2023/05/10 10:05:47;;;;;;;2.88;0.75;;;20.00;97.50;;;;;;4944453;29;20189;-84
2023/05/10 10:08:15;;;;;;;2.30;1.00;;;19.90;96.50;;;;;;4934724;29;20273;-83
2023/05/10 10:10:42;;;;;;;0.93;0.82;;;19.90;96.40;;;;;;4940028;29;20544;-82
2023/05/10 10:13:08;;;;;;;0.88;0.82;;;20.60;95.40;;;;;;4941993;29;20216;-83
2023/05/10 10:15:35;;;;;;;2.55;1.10;;;20.40;95.20;;;;;;4940423;29;20680;-83
2023/05/10 10:18:01;;;;;;;2.35;1.63;;;21.10;94.80;;;;;;4940022;28;20223;-82
2023/05/10 10:20:27;;;;;;;0.90;0.80;;;21.40;93.50;;;;;;4934948;29;20192;-81
2023/05/10 10:22:55;;;;;;;1.50;1.05;;;21.40;94.10;;;;;;4937135;29;20227;-82
2023/05/10 10:25:24;;;;;;;2.15;1.13;;;20.80;93.70;;;;;;4939069;29;20177;-83
2023/05/10 10:27:52;;;;;;;0.80;0.80;;;21.20;93.90;;;;;;4931097;29;20623;-82
2023/05/10 10:30:37;;;;;;;2.15;0.75;;;21.10;93.00;;;;;;4939508;29;20177;-82
2023/05/10 10:33:38;;;;;;;1.25;1.05;;;21.00;92.90;;;;;;4945557;29;20205;-82
2023/05/10 10:36:05;;;;;;;1.52;0.70;;;20.80;93.20;;;;;;4939754;28;20192;-82
2023/05/10 10:38:38;;;;;;;0.88;0.88;;;20.30;94.00;;;;;;4942239;29;20291;-82
2023/05/10 10:41:26;;;;;;;0.80;0.70;;;20.50;94.70;;;;;;4955767;28;20276;-82
2023/05/10 10:44:29;;;;;;;2.17;0.90;;;20.00;94.30;;;;;;4949998;28;20213;-82
2023/05/10 10:47:00;;;;;;;2.65;1.10;;;19.40;93.80;;;;;;4940800;29;20189;-82
2023/05/10 10:49:26;;;;;;;0.90;0.80;;;19.80;94.30;;;;;;4939398;29;20654;-82
2023/05/10 10:52:32;;;;;;;1.77;1.10;;;19.90;94.50;;;;;;4941326;29;20241;-83
2023/05/10 10:55:17;;;;;;;0.80;0.80;;;19.60;94.50;;;;;;4943685;29;20182;-82
2023/05/10 10:57:48;;;;;;;4.20;0.70;;;20.40;95.90;;;;;;4943340;29;20269;-82
2023/05/10 11:00:30;;;;;;;1.45;0.80;;;18.40;95.20;;;;;;4940545;28;20181;-82
2023/05/10 11:02:57;;;;;;;1.35;1.10;;;18.20;95.60;;;;;;4944154;29;20243;-83
2023/05/10 11:05:37;;;;;;;1.23;0.90;;;17.80;96.50;;;;;;4940114;29;20182;-83
2023/05/10 11:08:10;;;;;;;1.75;0.70;;;17.40;96.10;;;;;;4956445;29;20178;-82
2023/05/10 11:10:35;;;;;;;2.17;0.77;;;17.40;95.30;;;;;;4944333;29;20216;-84
2023/05/10 11:13:01;;;;;;;0.80;0.70;;;17.50;95.30;;;;;;4944519;29;20243;-84
2023/05/10 11:15:31;;;;;;;1.03;0.93;;;17.20;95.50;;;;;;4947239;29;20185;-84
2023/05/10 11:17:56;;;;;;;1.60;1.02;;;17.60;95.90;;;;;;4945975;29;20189;-84
2023/05/10 11:20:24;;;;;;;1.30;1.20;;;16.90;96.20;;;;;;4941993;29;20260;-83
2023/05/10 11:22:53;;;;;;;1.45;0.80;;;17.00;96.70;;;;;;4943322;29;20217;-84
2023/05/10 11:25:20;;;;;;;1.25;0.80;;;17.20;96.80;;;;;;4954935;29;20193;-83
2023/05/10 11:27:48;;;;;;;0.88;0.85;;;17.50;96.70;;;;;;4938841;29;20189;-83
2023/05/10 11:30:14;;;;;;;1.10;1.00;;;17.60;96.70;;;;;;4940110;29;20187;-82
2023/05/10 11:32:40;;;;;;;1.00;0.80;;;17.40;96.30;;;;;;4941006;29;20276;-84
2023/05/10 11:35:10;;;;;;;7.32;5.93;;;17.60;96.10;;;;;;4937174;29;20200;-84
2023/05/10 11:37:36;;;;;;;5.43;1.13;;;18.30;95.80;;;;;;4940970;29;20203;-84
2023/05/10 11:40:02;;;;;;;1.20;1.10;;;18.50;94.80;;;;;;4937392;29;20551;-85
2023/05/10 11:42:28;;;;;;;1.10;0.80;;;17.80;94.50;;;;;;4935274;29;20713;-85
2023/05/10 11:44:54;;;;;;;1.23;0.90;;;17.80;94.00;;;;;;4945110;29;20194;-82
2023/05/10 11:47:20;;;;;;;0.93;0.93;;;18.00;94.70;;;;;;4966552;29;20599;-82
2023/05/10 11:49:46;;;;;;;1.70;0.97;;;17.50;94.60;;;;;;4928337;29;20196;-83
2023/05/10 11:52:12;;;;;;;2.00;1.17;;;18.20;95.10;;;;;;4940646;29;20596;-82
2023/05/10 11:54:37;;;;;;;1.47;1.37;;;17.60;95.70;;;;;;4943730;29;20185;-82
2023/05/10 11:57:03;;;;;;;1.10;0.80;;;17.40;95.70;;;;;;4939612;29;20276;-83
2023/05/10 11:59:29;;;;;;;1.25;0.82;;;17.70;96.30;;;;;;4956950;29;20192;-82
2023/05/10 12:01:55;;;;;;;1.00;0.90;;;18.10;96.80;;;;;;4938787;28;20209;-86
2023/05/10 12:04:22;;;;;;;3.05;1.17;;;18.10;96.90;;;;;;4936716;29;20948;-83
2023/05/10 12:06:49;;;;;;;1.00;0.90;;;18.10;97.10;;;;;;4934904;29;20268;-84
2023/05/10 12:09:15;;;;;;;1.95;1.00;;;17.90;96.50;;;;;;4949727;29;20253;-84
2023/05/10 12:11:41;;;;;;;1.30;1.10;;;17.70;95.90;;;;;;4939072;29;20235;-84
2023/05/10 12:14:08;;;;;;;1.53;1.17;;;17.20;96.60;;;;;;4934060;29;20449;-85
2023/05/10 12:16:35;;;;;;;2.20;1.40;;;17.90;96.90;;;;;;4939713;29;20554;-85
2023/05/10 12:19:01;;;;;;;1.85;1.52;;;17.90;96.10;;;;;;4936481;29;20193;-84
2023/05/10 12:21:28;;;;;;;2.07;1.03;;;18.10;96.10;;;;;;4935789;28;20295;-87
2023/05/10 12:23:58;;;;;;;1.60;1.23;;;18.00;95.80;;;;;;4935258;29;20210;-86
2023/05/10 12:26:26;;;;;;;1.45;1.35;;;18.30;95.60;;;;;;4935474;28;20255;-85
2023/05/10 12:28:52;;;;;;;1.70;1.10;;;18.70;95.80;;;;;;4938788;29;20189;-83
2023/05/10 12:31:18;;;;;;;1.48;1.38;;;18.60;95.70;;;;;;4938578;29;20201;-85
2023/05/10 12:33:45;;;;;;;1.93;1.10;;;18.70;95.60;;;;;;4948430;29;20185;-84
2023/05/10 12:36:12;;;;;;;1.25;0.98;;;18.50;94.00;;;;;;4944908;29;20193;-84
2023/05/10 12:41:16;;;;;;;1.88;1.17;;;18.70;94.10;;;;;;651455;23;20681;-64
2023/05/10 12:43:41;;;;;;;1.73;1.40;;;18.50;94.20;;;;;;4946479;28;20251;-70
2023/05/10 12:46:17;;;;;;;1.30;0.97;;;18.60;94.10;;;;;;4947009;28;20670;-67
2023/05/10 12:48:43;;;;;;;1.65;1.30;;;18.20;93.40;;;;;;4946728;28;20692;-68
2023/05/10 12:51:11;;;;;;;1.38;1.27;;;18.50;94.00;;;;;;4945274;28;20209;-66
2023/05/10 12:53:38;;;;;;;1.40;1.30;;;18.40;93.60;;;;;;4946657;28;20204;-64